sensor_id;sensor_type;location;lat;lon;timestamp;pressure;altitude;pressure_sealevel;temperature;humidity
43770;BME280;6597;52.218;9.882;2023-03-03T00:00:53;101634.41;;;-0.65;100.00
43770;BME280;6597;52.218;9.882;2023-03-03T00:03:22;101621.50;;;-0.65;100.00
43770;BME280;6597;52.218;9.882;2023-03-03T00:05:49;101616.44;;;-0.62;100.00
43770;BME280;6597;52.218;9.882;2023-03-03T00:08:17;101610.22;;;-0.69;100.00
43770;BME280;6597;52.218;9.882;2023-03-03T00:10:44;101602.53;;;-0.67;100.00
43770;BME280;6597;52.218;9.882;2023-03-03T00:13:14;101602.53;;;-0.67;100.00
43770;BME280;6597;52.218;9.882;2023-03-03T00:15:41;101606.03;;;-0.65;100.00
43770;BME280;6597;52.218;9.882;2023-03-03T00:18:17;101602.72;;;-0.59;100.00
43770;BME280;6597;52.218;9.882;2023-03-03T00:20:49;101609.59;;;-0.60;100.00
43770;BME280;6597;52.218;9.882;2023-03-03T00:23:25;101615.72;;;-0.55;100.00
43770;BME280;6597;52.218;9.882;2023-03-03T00:25:52;101619.03;;;-0.60;100.00
43770;BME280;6597;52.218;9.882;2023-03-03T00:28:23;101617.25;;;-0.63;100.00
43770;BME280;6597;52.218;9.882;2023-03-03T00:30:50;101614.66;;;-0.65;100.00
43770;BME280;6597;52.218;9.882;2023-03-03T00:33:24;101606.06;;;-0.64;100.00
43770;BME280;6597;52.218;9.882;2023-03-03T00:35:53;101608.53;;;-0.68;100.00
43770;BME280;6597;52.218;9.882;2023-03-03T00:38:22;101607.69;;;-0.67;100.00
43770;BME280;6597;52.218;9.882;2023-03-03T00:40:49;101606.94;;;-0.63;100.00
43770;BME280;6597;52.218;9.882;2023-03-03T00:43:20;101608.72;;;-0.60;100.00
43770;BME280;6597;52.218;9.882;2023-03-03T00:45:48;101620.06;;;-0.54;100.00
43770;BME280;6597;52.218;9.882;2023-03-03T00:48:27;101619.88;;;-0.61;100.00
43770;BME280;6597;52.218;9.882;2023-03-03T00:50:55;101620.69;;;-0.64;100.00
43770;BME280;6597;52.218;9.882;2023-03-03T00:53:25;101624.84;;;-0.68;100.00
43770;BME280;6597;52.218;9.882;2023-03-03T00:55:52;101622.31;;;-0.66;100.00
43770;BME280;6597;52.218;9.882;2023-03-03T00:58:20;101625.00;;;-0.63;100.00
43770;BME280;6597;52.218;9.882;2023-03-03T01:00:47;101626.72;;;-0.64;100.00
43770;BME280;6597;52.218;9.882;2023-03-03T01:03:19;101630.91;;;-0.66;100.00
43770;BME280;6597;52.218;9.882;2023-03-03T01:05:46;101630.75;;;-0.73;100.00
43770;BME280;6597;52.218;9.882;2023-03-03T01:08:13;101623.66;;;-0.82;100.00
43770;BME280;6597;52.218;9.882;2023-03-03T01:10:43;101630.41;;;-0.87;100.00
43770;BME280;6597;52.218;9.882;2023-03-03T01:13:11;101629.50;;;-0.89;100.00
43770;BME280;6597;52.218;9.882;2023-03-03T01:15:38;101634.75;;;-0.84;100.00
43770;BME280;6597;52.218;9.882;2023-03-03T01:18:05;101630.38;;;-0.88;100.00
43770;BME280;6597;52.218;9.882;2023-03-03T01:20:32;101625.97;;;-0.92;100.00
43770;BME280;6597;52.218;9.882;2023-03-03T01:22:59;101622.50;;;-0.95;100.00
43770;BME280;6597;52.218;9.882;2023-03-03T01:25:26;101625.09;;;-0.93;100.00
43770;BME280;6597;52.218;9.882;2023-03-03T01:27:54;101634.47;;;-0.97;100.00
43770;BME280;6597;52.218;9.882;2023-03-03T01:30:21;101622.34;;;-0.99;100.00
43770;BME280;6597;52.218;9.882;2023-03-03T01:32:48;101624.88;;;-1.01;100.00
43770;BME280;6597;52.218;9.882;2023-03-03T01:35:14;101644.78;;;-0.97;100.00
43770;BME280;6597;52.218;9.882;2023-03-03T01:37:41;101630.88;;;-1.02;100.00
43770;BME280;6597;52.218;9.882;2023-03-03T01:40:14;101634.19;;;-1.06;100.00
43770;BME280;6597;52.218;9.882;2023-03-03T01:42:41;101631.66;;;-1.04;100.00
43770;BME280;6597;52.218;9.882;2023-03-03T01:45:27;101630.88;;;-1.02;100.00
43770;BME280;6597;52.218;9.882;2023-03-03T01:47:58;101625.78;;;-0.99;100.00
43770;BME280;6597;52.218;9.882;2023-03-03T01:50:37;101628.25;;;-1.03;100.00
43770;BME280;6597;52.218;9.882;2023-03-03T01:53:11;101623.97;;;-1.03;100.00
43770;BME280;6597;52.218;9.882;2023-03-03T01:55:40;101617.97;;;-1.02;100.00
43770;BME280;6597;52.218;9.882;2023-03-03T01:58:10;101620.47;;;-1.05;100.00
43770;BME280;6597;52.218;9.882;2023-03-03T02:00:41;101616.28;;;-1.01;100.00
43770;BME280;6597;52.218;9.882;2023-03-03T02:03:10;101612.00;;;-1.01;100.00
43770;BME280;6597;52.218;9.882;2023-03-03T02:05:37;101629.25;;;-0.98;100.00
43770;BME280;6597;52.218;9.882;2023-03-03T02:08:07;101636.03;;;-1.02;100.00
43770;BME280;6597;52.218;9.882;2023-03-03T02:10:36;101632.47;;;-1.07;100.00
43770;BME280;6597;52.218;9.882;2023-03-03T02:13:02;101632.34;;;-1.11;100.00
43770;BME280;6597;52.218;9.882;2023-03-03T02:15:31;101635.72;;;-1.14;100.00
43770;BME280;6597;52.218;9.882;2023-03-03T02:18:04;101633.09;;;-1.15;100.00
43770;BME280;6597;52.218;9.882;2023-03-03T02:20:43;101639.03;;;-1.18;100.00
43770;BME280;6597;52.218;9.882;2023-03-03T02:23:16;101638.94;;;-1.22;100.00
43770;BME280;6597;52.218;9.882;2023-03-03T02:25:59;101624.22;;;-1.27;100.00
43770;BME280;6597;52.218;9.882;2023-03-03T02:28:31;101618.34;;;-1.21;100.00
43770;BME280;6597;52.218;9.882;2023-03-03T02:31:06;101625.25;;;-1.20;100.00
43770;BME280;6597;52.218;9.882;2023-03-03T02:33:35;101625.97;;;-1.26;100.00
43770;BME280;6597;52.218;9.882;2023-03-03T02:36:02;101630.94;;;-1.32;100.00
43770;BME280;6597;52.218;9.882;2023-03-03T02:38:31;101618.88;;;-1.33;100.00
43770;BME280;6597;52.218;9.882;2023-03-03T02:41:07;101599.94;;;-1.35;100.00
43770;BME280;6597;52.218;9.882;2023-03-03T02:43:41;101607.69;;;-1.33;100.00
43770;BME280;6597;52.218;9.882;2023-03-03T02:46:12;101618.84;;;-1.34;100.00
43770;BME280;6597;52.218;9.882;2023-03-03T02:48:39;101613.66;;;-1.36;100.00
43770;BME280;6597;52.218;9.882;2023-03-03T02:51:05;101618.75;;;-1.37;100.00
43770;BME280;6597;52.218;9.882;2023-03-03T02:53:32;101627.19;;;-1.43;100.00
43770;BME280;6597;52.218;9.882;2023-03-03T02:55:58;101620.31;;;-1.44;100.00
43770;BME280;6597;52.218;9.882;2023-03-03T02:58:26;101619.44;;;-1.44;100.00
43770;BME280;6597;52.218;9.882;2023-03-03T03:00:53;101620.41;;;-1.39;100.00
43770;BME280;6597;52.218;9.882;2023-03-03T03:03:22;101622.13;;;-1.40;100.00
43770;BME280;6597;52.218;9.882;2023-03-03T03:05:49;101607.47;;;-1.42;100.00
43770;BME280;6597;52.218;9.882;2023-03-03T03:08:18;101613.44;;;-1.43;100.00
43770;BME280;6597;52.218;9.882;2023-03-03T03:10:45;101610.88;;;-1.43;100.00
43770;BME280;6597;52.218;9.882;2023-03-03T03:13:12;101614.41;;;-1.40;100.00
43770;BME280;6597;52.218;9.882;2023-03-03T03:15:40;101604.03;;;-1.43;100.00
43770;BME280;6597;52.218;9.882;2023-03-03T03:18:07;101601.53;;;-1.40;100.00
43770;BME280;6597;52.218;9.882;2023-03-03T03:20:35;101599.06;;;-1.35;100.00
43770;BME280;6597;52.218;9.882;2023-03-03T03:23:04;101599.28;;;-1.28;100.00
43770;BME280;6597;52.218;9.882;2023-03-03T03:25:31;101606.31;;;-1.22;100.00
43770;BME280;6597;52.218;9.882;2023-03-03T03:27:57;101605.50;;;-1.19;100.00
43770;BME280;6597;52.218;9.882;2023-03-03T03:30:24;101599.53;;;-1.18;100.00
43770;BME280;6597;52.218;9.882;2023-03-03T03:32:52;101602.06;;;-1.20;100.00
43770;BME280;6597;52.218;9.882;2023-03-03T03:35:19;101597.88;;;-1.16;100.00
43770;BME280;6597;52.218;9.882;2023-03-03T03:37:46;101606.38;;;-1.19;100.00
43770;BME280;6597;52.218;9.882;2023-03-03T03:40:12;101612.50;;;-1.15;100.00
43770;BME280;6597;52.218;9.882;2023-03-03T03:42:40;101618.44;;;-1.18;100.00
43770;BME280;6597;52.218;9.882;2023-03-03T03:45:07;101619.19;;;-1.22;100.00
43770;BME280;6597;52.218;9.882;2023-03-03T03:47:35;101614.94;;;-1.20;100.00
43770;BME280;6597;52.218;9.882;2023-03-03T03:50:03;101608.13;;;-1.18;100.00
43770;BME280;6597;52.218;9.882;2023-03-03T03:52:30;101610.78;;;-1.15;100.00
43770;BME280;6597;52.218;9.882;2023-03-03T03:54:57;101603.88;;;-1.16;100.00
43770;BME280;6597;52.218;9.882;2023-03-03T03:57:23;101603.97;;;-1.13;100.00
43770;BME280;6597;52.218;9.882;2023-03-03T03:59:50;101603.13;;;-1.12;100.00
43770;BME280;6597;52.218;9.882;2023-03-03T04:02:17;101599.84;;;-1.06;100.00
43770;BME280;6597;52.218;9.882;2023-03-03T04:04:43;101604.06;;;-1.08;100.00
43770;BME280;6597;52.218;9.882;2023-03-03T04:07:12;101611.84;;;-1.07;100.00
43770;BME280;6597;52.218;9.882;2023-03-03T04:09:39;101616.25;;;-1.03;100.00
43770;BME280;6597;52.218;9.882;2023-03-03T04:12:07;101612.84;;;-1.02;100.00
43770;BME280;6597;52.218;9.882;2023-03-03T04:14:34;101631.88;;;-0.97;100.00
43770;BME280;6597;52.218;9.882;2023-03-03T04:17:00;101631.94;;;-0.95;100.00
43770;BME280;6597;52.218;9.882;2023-03-03T04:19:27;101636.03;;;-1.02;100.00
43770;BME280;6597;52.218;9.882;2023-03-03T04:21:54;101625.88;;;-0.97;100.00
43770;BME280;6597;52.218;9.882;2023-03-03T04:24:22;101625.78;;;-0.99;100.00
43770;BME280;6597;52.218;9.882;2023-03-03T04:26:50;101632.66;;;-0.99;100.00
43770;BME280;6597;52.218;9.882;2023-03-03T04:29:17;101629.34;;;-0.95;100.00
43770;BME280;6597;52.218;9.882;2023-03-03T04:31:43;101636.34;;;-0.89;100.00
43770;BME280;6597;52.218;9.882;2023-03-03T04:34:10;101628.59;;;-0.91;100.00
43770;BME280;6597;52.218;9.882;2023-03-03T04:36:37;101632.06;;;-0.89;100.00
43770;BME280;6597;52.218;9.882;2023-03-03T04:39:04;101632.81;;;-0.95;100.00
43770;BME280;6597;52.218;9.882;2023-03-03T04:41:32;101629.38;;;-0.93;100.00
43770;BME280;6597;52.218;9.882;2023-03-03T04:43:58;101634.63;;;-0.90;100.00
43770;BME280;6597;52.218;9.882;2023-03-03T04:46:25;101636.44;;;-0.86;100.00
43770;BME280;6597;52.218;9.882;2023-03-03T04:48:52;101631.22;;;-0.89;100.00
43770;BME280;6597;52.218;9.882;2023-03-03T04:51:20;101632.94;;;-0.88;100.00
43770;BME280;6597;52.218;9.882;2023-03-03T04:53:46;101634.63;;;-0.90;100.00
43770;BME280;6597;52.218;9.882;2023-03-03T04:56:13;101625.09;;;-0.93;100.00
43770;BME280;6597;52.218;9.882;2023-03-03T04:58:41;101636.41;;;-0.88;100.00
43770;BME280;6597;52.218;9.882;2023-03-03T05:01:10;101635.59;;;-0.85;100.00
43770;BME280;6597;52.218;9.882;2023-03-03T05:03:38;101634.88;;;-0.80;100.00
43770;BME280;6597;52.218;9.882;2023-03-03T05:06:05;101634.03;;;-0.79;100.00
43770;BME280;6597;52.218;9.882;2023-03-03T05:08:32;101634.13;;;-0.76;100.00
43770;BME280;6597;52.218;9.882;2023-03-03T05:10:59;101644.38;;;-0.77;100.00
43770;BME280;6597;52.218;9.882;2023-03-03T05:13:25;101644.53;;;-0.71;100.00
43770;BME280;6597;52.218;9.882;2023-03-03T05:15:54;101651.44;;;-0.70;100.00
43770;BME280;6597;52.218;9.882;2023-03-03T05:18:21;101648.88;;;-0.70;100.00
43770;BME280;6597;52.218;9.882;2023-03-03T05:20:49;101648.88;;;-0.70;100.00
43770;BME280;6597;52.218;9.882;2023-03-03T05:23:16;101636.97;;;-0.65;100.00
43770;BME280;6597;52.218;9.882;2023-03-03T05:25:43;101625.75;;;-0.66;100.00
43770;BME280;6597;52.218;9.882;2023-03-03T05:28:10;101630.16;;;-0.63;100.00
43770;BME280;6597;52.218;9.882;2023-03-03T05:30:37;101625.84;;;-0.64;100.00
43770;BME280;6597;52.218;9.882;2023-03-03T05:33:05;101635.31;;;-0.63;100.00
43770;BME280;6597;52.218;9.882;2023-03-03T05:35:33;101635.38;;;-0.60;100.00
43770;BME280;6597;52.218;9.882;2023-03-03T05:38:00;101613.91;;;-0.59;100.00
43770;BME280;6597;52.218;9.882;2023-03-03T05:40:27;101611.28;;;-0.62;100.00
43770;BME280;6597;52.218;9.882;2023-03-03T05:42:53;101604.41;;;-0.61;100.00
43770;BME280;6597;52.218;9.882;2023-03-03T05:45:20;101596.63;;;-0.63;100.00
43770;BME280;6597;52.218;9.882;2023-03-03T05:47:49;101612.00;;;-0.66;100.00
43770;BME280;6597;52.218;9.882;2023-03-03T05:50:18;101599.22;;;-0.63;100.00
43770;BME280;6597;52.218;9.882;2023-03-03T05:52:46;101618.97;;;-0.64;100.00
43770;BME280;6597;52.218;9.882;2023-03-03T05:55:13;101618.94;;;-0.65;100.00
43770;BME280;6597;52.218;9.882;2023-03-03T05:57:39;101612.78;;;-0.70;100.00
43770;BME280;6597;52.218;9.882;2023-03-03T06:00:07;101608.44;;;-0.71;100.00
43770;BME280;6597;52.218;9.882;2023-03-03T06:02:43;101614.31;;;-0.77;100.00
43770;BME280;6597;52.218;9.882;2023-03-03T06:05:10;101616.91;;;-0.77;100.00
43770;BME280;6597;52.218;9.882;2023-03-03T06:07:38;101619.59;;;-0.72;100.00
43770;BME280;6597;52.218;9.882;2023-03-03T06:10:06;101618.63;;;-0.77;100.00
43770;BME280;6597;52.218;9.882;2023-03-03T06:12:35;101623.72;;;-0.79;100.00
43770;BME280;6597;52.218;9.882;2023-03-03T06:15:04;101637.47;;;-0.80;100.00
43770;BME280;6597;52.218;9.882;2023-03-03T06:17:31;101641.00;;;-0.75;100.00
43770;BME280;6597;52.218;9.882;2023-03-03T06:19:57;101650.63;;;-0.68;100.00
43770;BME280;6597;52.218;9.882;2023-03-03T06:22:24;101651.63;;;-0.64;100.00
43770;BME280;6597;52.218;9.882;2023-03-03T06:24:51;101654.19;;;-0.64;100.00
43770;BME280;6597;52.218;9.882;2023-03-03T06:27:18;101659.28;;;-0.66;100.00
43770;BME280;6597;52.218;9.882;2023-03-03T06:29:45;101661.16;;;-0.60;100.00
43770;BME280;6597;52.218;9.882;2023-03-03T06:32:11;101664.69;;;-0.56;100.00
43770;BME280;6597;52.218;9.882;2023-03-03T06:34:38;101669.97;;;-0.52;100.00
43770;BME280;6597;52.218;9.882;2023-03-03T06:37:05;101670.94;;;-0.47;100.00
43770;BME280;6597;52.218;9.882;2023-03-03T06:39:32;101670.19;;;-0.43;100.00
43770;BME280;6597;52.218;9.882;2023-03-03T06:41:59;101667.66;;;-0.40;100.00
43770;BME280;6597;52.218;9.882;2023-03-03T06:44:26;101669.50;;;-0.34;100.00
43770;BME280;6597;52.218;9.882;2023-03-03T06:46:53;101674.84;;;-0.28;100.00
43770;BME280;6597;52.218;9.882;2023-03-03T06:49:21;101668.09;;;-0.23;100.00
43770;BME280;6597;52.218;9.882;2023-03-03T06:51:48;101665.69;;;-0.15;100.00
43770;BME280;6597;52.218;9.882;2023-03-03T06:54:16;101672.56;;;-0.14;100.00
43770;BME280;6597;52.218;9.882;2023-03-03T06:56:44;101662.28;;;-0.13;100.00
43770;BME280;6597;52.218;9.882;2023-03-03T06:59:14;101670.72;;;-0.20;100.00
43770;BME280;6597;52.218;9.882;2023-03-03T07:01:41;101670.69;;;-0.21;100.00
43770;BME280;6597;52.218;9.882;2023-03-03T07:04:21;101673.34;;;-0.18;100.00
43770;BME280;6597;52.218;9.882;2023-03-03T07:06:49;101675.00;;;-0.22;100.00
43770;BME280;6597;52.218;9.882;2023-03-03T07:09:20;101675.84;;;-0.21;100.00
43770;BME280;6597;52.218;9.882;2023-03-03T07:11:49;101677.66;;;-0.17;100.00
43770;BME280;6597;52.218;9.882;2023-03-03T07:14:18;101684.69;;;-0.12;100.00
43770;BME280;6597;52.218;9.882;2023-03-03T07:16:45;101688.31;;;-0.04;100.00
43770;BME280;6597;52.218;9.882;2023-03-03T07:19:18;101678.97;;;0.02;100.00
43770;BME280;6597;52.218;9.882;2023-03-03T07:21:46;101688.59;;;0.09;100.00
43770;BME280;6597;52.218;9.882;2023-03-03T07:24:23;101683.44;;;0.09;100.00
43770;BME280;6597;52.218;9.882;2023-03-03T07:26:50;101684.31;;;0.09;100.00
43770;BME280;6597;52.218;9.882;2023-03-03T07:29:22;101699.03;;;0.13;100.00
43770;BME280;6597;52.218;9.882;2023-03-03T07:31:50;101689.44;;;0.08;100.00
43770;BME280;6597;52.218;9.882;2023-03-03T07:34:20;101694.59;;;0.08;100.00
43770;BME280;6597;52.218;9.882;2023-03-03T07:36:48;101699.00;;;0.12;100.00
43770;BME280;6597;52.218;9.882;2023-03-03T07:39:34;101710.22;;;0.14;100.00
43770;BME280;6597;52.218;9.882;2023-03-03T07:42:22;101699.94;;;0.15;100.00
43770;BME280;6597;52.218;9.882;2023-03-03T07:45:00;101704.25;;;0.16;100.00
43770;BME280;6597;52.218;9.882;2023-03-03T07:47:29;101704.34;;;0.21;100.00
43770;BME280;6597;52.218;9.882;2023-03-03T07:49:59;101707.97;;;0.29;100.00
43770;BME280;6597;52.218;9.882;2023-03-03T07:52:30;101719.31;;;0.34;100.00
43770;BME280;6597;52.218;9.882;2023-03-03T07:55:22;101715.03;;;0.36;100.00
43770;BME280;6597;52.218;9.882;2023-03-03T07:57:53;101718.63;;;0.43;100.00
43770;BME280;6597;52.218;9.882;2023-03-03T08:03:38;101722.88;;;0.41;100.00
43770;BME280;6597;52.218;9.882;2023-03-03T08:06:10;101711.75;;;0.43;100.00
43770;BME280;6597;52.218;9.882;2023-03-03T08:08:49;101716.06;;;0.44;100.00
43770;BME280;6597;52.218;9.882;2023-03-03T08:11:16;101716.22;;;0.52;100.00
43770;BME280;6597;52.218;9.882;2023-03-03T08:13:42;101710.34;;;0.59;100.00
43770;BME280;6597;52.218;9.882;2023-03-03T08:16:29;101716.53;;;0.66;100.00
43770;BME280;6597;52.218;9.882;2023-03-03T08:19:04;101720.97;;;0.73;100.00
43770;BME280;6597;52.218;9.882;2023-03-03T08:21:34;101730.47;;;0.74;100.00
43770;BME280;6597;52.218;9.882;2023-03-03T08:24:01;101721.13;;;0.80;100.00
43770;BME280;6597;52.218;9.882;2023-03-03T08:26:27;101726.28;;;0.80;100.00
43770;BME280;6597;52.218;9.882;2023-03-03T08:28:54;101722.06;;;0.84;100.00
43770;BME280;6597;52.218;9.882;2023-03-03T08:31:21;101729.03;;;0.88;100.00
43770;BME280;6597;52.218;9.882;2023-03-03T08:33:47;101726.56;;;0.94;100.00
43770;BME280;6597;52.218;9.882;2023-03-03T08:36:15;101724.16;;;1.02;100.00
43770;BME280;6597;52.218;9.882;2023-03-03T08:38:42;101721.66;;;1.06;100.00
43770;BME280;6597;52.218;9.882;2023-03-03T08:41:09;101724.34;;;1.12;100.00
43770;BME280;6597;52.218;9.882;2023-03-03T08:43:35;101728.72;;;1.16;100.00
43770;BME280;6597;52.218;9.882;2023-03-03T08:46:04;101725.38;;;1.22;100.00
43770;BME280;6597;52.218;9.882;2023-03-03T08:48:32;101728.16;;;1.31;100.00
43770;BME280;6597;52.218;9.882;2023-03-03T08:50:58;101730.91;;;1.40;100.00
43770;BME280;6597;52.218;9.882;2023-03-03T08:53:27;101733.69;;;1.52;100.00
43770;BME280;6597;52.218;9.882;2023-03-03T08:55:53;101729.47;;;1.58;100.00
43770;BME280;6597;52.218;9.882;2023-03-03T08:58:20;101725.94;;;1.54;100.00
43770;BME280;6597;52.218;9.882;2023-03-03T09:00:47;101738.03;;;1.53;100.00
43770;BME280;6597;52.218;9.882;2023-03-03T09:03:14;101740.59;;;1.52;100.00
43770;BME280;6597;52.218;9.882;2023-03-03T09:05:40;101736.19;;;1.48;100.00
43770;BME280;6597;52.218;9.882;2023-03-03T09:08:07;101741.31;;;1.45;100.00
43770;BME280;6597;52.218;9.882;2023-03-03T09:10:36;101736.59;;;1.22;100.00
43770;BME280;6597;52.218;9.882;2023-03-03T09:13:06;101746.00;;;1.19;100.00
43770;BME280;6597;52.218;9.882;2023-03-03T09:15:37;101736.66;;;1.25;100.00
43770;BME280;6597;52.218;9.882;2023-03-03T09:18:12;101740.25;;;1.32;100.00
43770;BME280;6597;52.218;9.882;2023-03-03T09:20:41;101732.63;;;1.41;100.00
43770;BME280;6597;52.218;9.882;2023-03-03T09:23:29;101730.31;;;1.56;100.00
43770;BME280;6597;52.218;9.882;2023-03-03T09:26:23;101734.03;;;1.71;100.00
43770;BME280;6597;52.218;9.882;2023-03-03T09:28:53;101726.31;;;1.74;100.00
43770;BME280;6597;52.218;9.882;2023-03-03T09:31:24;101729.81;;;1.77;100.00
43770;BME280;6597;52.218;9.882;2023-03-03T09:33:51;101726.47;;;1.84;100.00
43770;BME280;6597;52.218;9.882;2023-03-03T09:36:24;101728.88;;;1.74;100.00
43770;BME280;6597;52.218;9.882;2023-03-03T09:38:52;101739.44;;;1.86;100.00
43770;BME280;6597;52.218;9.882;2023-03-03T09:41:48;101728.50;;;2.02;100.00
43770;BME280;6597;52.218;9.882;2023-03-03T09:44:27;101728.69;;;2.17;100.00
43770;BME280;6597;52.218;9.882;2023-03-03T09:47:16;101731.38;;;2.24;100.00
43770;BME280;6597;52.218;9.882;2023-03-03T09:49:55;101734.88;;;2.27;99.56
43770;BME280;6597;52.218;9.882;2023-03-03T09:52:34;101741.94;;;2.36;100.00
43770;BME280;6597;52.218;9.882;2023-03-03T09:55:17;101731.50;;;2.30;99.29
43770;BME280;6597;52.218;9.882;2023-03-03T09:57:59;101742.78;;;2.35;99.98
43770;BME280;6597;52.218;9.882;2023-03-03T10:00:39;101744.59;;;2.42;99.86
43770;BME280;6597;52.218;9.882;2023-03-03T10:06:17;101749.91;;;2.51;100.00
43770;BME280;6597;52.218;9.882;2023-03-03T10:08:57;101751.81;;;2.61;99.57
43770;BME280;6597;52.218;9.882;2023-03-03T10:11:31;101744.09;;;2.67;98.62
43770;BME280;6597;52.218;9.882;2023-03-03T10:14:17;101737.16;;;2.65;97.51
43770;BME280;6597;52.218;9.882;2023-03-03T10:16:56;101745.13;;;2.81;97.62
43770;BME280;6597;52.218;9.882;2023-03-03T10:19:36;101738.31;;;2.90;96.96
43770;BME280;6597;52.218;9.882;2023-03-03T10:22:16;101741.97;;;3.07;96.55
43770;BME280;6597;52.218;9.882;2023-03-03T10:24:53;101741.13;;;3.08;93.13
43770;BME280;6597;52.218;9.882;2023-03-03T10:27:39;101737.47;;;2.92;93.14
43770;BME280;6597;52.218;9.882;2023-03-03T10:30:17;101746.91;;;2.86;94.49
43770;BME280;6597;52.218;9.882;2023-03-03T10:32:52;101746.00;;;2.82;95.17
43770;BME280;6597;52.218;9.882;2023-03-03T10:38:31;101755.28;;;2.63;94.30
43770;BME280;6597;52.218;9.882;2023-03-03T10:41:12;101750.06;;;2.60;95.07
43770;BME280;6597;52.218;9.882;2023-03-03T10:43:59;101755.34;;;2.69;95.68
43770;BME280;6597;52.218;9.882;2023-03-03T10:46:45;101751.97;;;2.75;94.29
43770;BME280;6597;52.218;9.882;2023-03-03T10:49:26;101750.44;;;2.92;94.39
43770;BME280;6597;52.218;9.882;2023-03-03T10:52:08;101762.63;;;2.98;93.41
43770;BME280;6597;52.218;9.882;2023-03-03T10:54:50;101752.31;;;3.04;92.58
43770;BME280;6597;52.218;9.882;2023-03-03T10:57:23;101762.63;;;2.96;92.29
43770;BME280;6597;52.218;9.882;2023-03-03T11:00:14;101748.75;;;2.93;92.93
43770;BME280;6597;52.218;9.882;2023-03-03T11:02:52;101756.59;;;2.99;92.99
43770;BME280;6597;52.218;9.882;2023-03-03T11:05:28;101754.13;;;3.11;92.76
43770;BME280;6597;52.218;9.882;2023-03-03T11:08:00;101752.50;;;3.22;92.08
43770;BME280;6597;52.218;9.882;2023-03-03T11:10:39;101761.25;;;3.27;91.73
43770;BME280;6597;52.218;9.882;2023-03-03T11:13:14;101743.13;;;3.30;90.95
43770;BME280;6597;52.218;9.882;2023-03-03T11:16:05;101744.81;;;3.27;90.23
43770;BME280;6597;52.218;9.882;2023-03-03T11:18:51;101744.84;;;3.30;90.58
43770;BME280;6597;52.218;9.882;2023-03-03T11:21:29;101740.53;;;3.33;89.83
43770;BME280;6597;52.218;9.882;2023-03-03T11:24:13;101741.47;;;3.40;88.98
43770;BME280;6597;52.218;9.882;2023-03-03T11:26:55;101738.13;;;3.52;89.12
43770;BME280;6597;52.218;9.882;2023-03-03T11:29:37;101740.84;;;3.65;88.13
43770;BME280;6597;52.218;9.882;2023-03-03T11:32:18;101738.19;;;3.58;88.78
43770;BME280;6597;52.218;9.882;2023-03-03T11:34:57;101731.38;;;3.70;88.26
43770;BME280;6597;52.218;9.882;2023-03-03T11:37:30;101734.03;;;3.80;87.12
43770;BME280;6597;52.218;9.882;2023-03-03T11:40:11;101740.91;;;3.70;85.93
43770;BME280;6597;52.218;9.882;2023-03-03T11:42:46;101735.78;;;3.79;86.18
43770;BME280;6597;52.218;9.882;2023-03-03T11:45:21;101739.28;;;3.86;85.74
43770;BME280;6597;52.218;9.882;2023-03-03T11:47:54;101728.00;;;3.81;85.43
43770;BME280;6597;52.218;9.882;2023-03-03T11:50:27;101730.56;;;3.79;85.98
43770;BME280;6597;52.218;9.882;2023-03-03T11:53:08;101728.91;;;3.87;86.37
43770;BME280;6597;52.218;9.882;2023-03-03T11:55:43;101732.44;;;3.91;86.59
43770;BME280;6597;52.218;9.882;2023-03-03T11:58:13;101717.75;;;3.97;86.31
43770;BME280;6597;52.218;9.882;2023-03-03T12:00:48;101718.66;;;4.04;86.67
43770;BME280;6597;52.218;9.882;2023-03-03T12:03:23;101716.88;;;3.97;86.35
43770;BME280;6597;52.218;9.882;2023-03-03T12:06:10;101715.97;;;3.92;86.07
43770;BME280;6597;52.218;9.882;2023-03-03T12:08:52;101714.16;;;3.85;86.51
43770;BME280;6597;52.218;9.882;2023-03-03T12:11:24;101712.47;;;3.88;85.71
43770;BME280;6597;52.218;9.882;2023-03-03T12:13:56;101710.66;;;3.80;85.85
43770;BME280;6597;52.218;9.882;2023-03-03T12:16:40;101700.25;;;3.73;86.19
43770;BME280;6597;52.218;9.882;2023-03-03T12:19:24;101695.91;;;3.71;86.47
43770;BME280;6597;52.218;9.882;2023-03-03T12:22:29;101692.28;;;3.57;86.91
43770;BME280;6597;52.218;9.882;2023-03-03T12:25:19;101687.25;;;3.73;87.35
43770;BME280;6597;52.218;9.882;2023-03-03T12:27:52;101686.38;;;3.73;86.77
43770;BME280;6597;52.218;9.882;2023-03-03T12:30:43;101681.22;;;3.79;86.99
43770;BME280;6597;52.218;9.882;2023-03-03T12:33:21;101683.88;;;3.87;86.58
43770;BME280;6597;52.218;9.882;2023-03-03T12:35:58;101675.22;;;3.89;85.15
43770;BME280;6597;52.218;9.882;2023-03-03T12:38:37;101674.50;;;4.07;85.96
43770;BME280;6597;52.218;9.882;2023-03-03T12:41:11;101676.19;;;3.99;84.65
43770;BME280;6597;52.218;9.882;2023-03-03T12:43:49;101669.28;;;4.04;85.62
43770;BME280;6597;52.218;9.882;2023-03-03T12:46:24;101664.25;;;4.28;85.11
43770;BME280;6597;52.218;9.882;2023-03-03T12:48:53;101672.06;;;4.37;84.74
43770;BME280;6597;52.218;9.882;2023-03-03T12:51:30;101666.00;;;4.37;84.68
43770;BME280;6597;52.218;9.882;2023-03-03T12:54:13;101653.91;;;4.48;82.86
43770;BME280;6597;52.218;9.882;2023-03-03T12:56:47;101658.25;;;4.52;82.71
43770;BME280;6597;52.218;9.882;2023-03-03T12:59:21;101660.06;;;4.59;83.28
43770;BME280;6597;52.218;9.882;2023-03-03T13:02:05;101653.13;;;4.66;83.09
43770;BME280;6597;52.218;9.882;2023-03-03T13:04:45;101660.94;;;4.61;82.92
43770;BME280;6597;52.218;9.882;2023-03-03T13:07:21;101655.75;;;4.66;83.04
43770;BME280;6597;52.218;9.882;2023-03-03T13:10:02;101650.53;;;4.71;82.61
43770;BME280;6597;52.218;9.882;2023-03-03T13:12:37;101651.41;;;4.73;82.91
43770;BME280;6597;52.218;9.882;2023-03-03T13:15:12;101641.00;;;4.73;83.66
43770;BME280;6597;52.218;9.882;2023-03-03T13:17:48;101649.69;;;4.75;84.09
43770;BME280;6597;52.218;9.882;2023-03-03T13:20:24;101648.81;;;4.77;83.43
43770;BME280;6597;52.218;9.882;2023-03-03T13:23:00;101651.41;;;4.71;83.49
43770;BME280;6597;52.218;9.882;2023-03-03T13:25:37;101652.28;;;4.68;83.04
43770;BME280;6597;52.218;9.882;2023-03-03T13:28:13;101656.53;;;4.54;83.33
43770;BME280;6597;52.218;9.882;2023-03-03T13:30:47;101646.97;;;4.44;83.81